Terminal Aerodrome Forecast
Issued by NWS Amarillo, TX

Home | Current Version | Previous Version | Text Only | Print | Product List | Glossary On
Versions: 1 2 3 4 5 6 7 8 9 10 11 12 13 14 15
971
FTUS44 KAMA 201120
TAFAMA
TAF
KAMA 201120Z 2012/2112 20012KT P6SM SCT100 BKN250
     FM201700 19015G25KT P6SM SCT060
     FM210100 17010KT P6SM BKN250=

USA.gov is the U.S. government's official web portal to all federal, state and local government web resources and services.